.
WxDataArchive / Data Records for 2015-09-18
2015-09-17 September 2015 2015-09-19

Data Records for Friday, 18 September 2015

Time	Temp	Chill	HIndex	Humid	Dewpt	 Wind 	HiWind	WindDir	Rain 	Barom 
-----	----	-----	------	-----	-----	------	------	-------	-----	----- 
00:00	69.6	69.6	69.6	56	53.2	0	2	292	0.00	29.906 
00:05	69.6	69.6	69.6	55	52.7	0	1	315	0.00	29.906 
00:10	69.8	69.8	69.8	55	52.9	0	2	315	0.00	29.906 
00:15	69.8	69.8	69.8	55	52.9	0	1	315	0.00	29.898 
00:20	69.9	69.9	69.9	55	53.0	0	1	315	0.00	29.898 
00:25	69.9	69.9	69.9	55	53.0	0	1	292	0.00	29.898 
00:30	69.9	69.9	69.9	54	52.5	0	2	315	0.00	29.901 
00:35	70.1	70.1	70.1	54	52.7	0	2	315	0.00	29.901 
00:40	70.1	70.1	70.1	54	52.7	0	2	315	0.00	29.901 
00:45	70.1	70.1	70.1	54	52.7	0	2	315	0.00	29.914 
00:50	70.1	70.1	70.1	54	52.7	0	1	315	0.00	29.914 
00:55	70.1	70.1	70.1	55	53.2	0	1	315	0.00	29.914 
01:00	69.9	69.9	69.9	55	53.0	0	1	315	0.00	29.918 
01:05	69.9	69.9	69.9	55	53.0	0	1	315	0.00	29.918 
01:10	69.9	69.9	69.9	54	52.5	0	0	---	0.00	29.918 
01:15	69.9	69.9	69.9	55	53.0	0	1	315	0.00	29.917 
01:20	69.9	69.9	69.9	55	53.0	0	1	315	0.00	29.917 
01:25	69.8	69.8	69.8	55	52.9	0	0	---	0.00	29.917 
01:30	69.8	69.8	69.8	55	52.9	0	1	315	0.00	29.915 
01:35	69.6	69.6	69.6	56	53.2	0	1	315	0.00	29.915 
01:40	69.4	69.4	69.4	56	53.0	0	0	---	0.00	29.915 
01:45	69.4	69.4	69.4	56	53.0	0	1	315	0.00	29.906 
01:50	69.4	69.4	69.4	56	53.0	0	0	---	0.00	29.906 
01:55	69.3	69.3	69.3	57	53.4	0	1	315	0.00	29.906 
02:00	69.3	69.3	69.3	57	53.4	0	1	315	0.00	29.904 
02:05	69.3	69.3	69.3	57	53.4	0	0	---	0.00	29.904 
02:10	69.1	69.1	69.1	57	53.2	0	1	315	0.00	29.904 
02:15	69.1	69.1	69.1	58	53.7	0	1	315	0.00	29.903 
02:20	69.1	69.1	69.1	58	53.7	0	0	---	0.00	29.903 
02:25	68.9	68.9	68.9	58	53.5	0	0	---	0.00	29.903 
02:30	68.9	68.9	68.9	58	53.5	0	2	315	0.00	29.900 
02:35	69.1	69.1	69.1	57	53.2	0	2	315	0.00	29.900 
02:40	69.1	69.1	69.1	57	53.2	0	1	315	0.00	29.900 
02:45	69.1	69.1	69.1	58	53.7	0	1	315	0.00	29.889 
02:50	69.1	69.1	69.1	58	53.7	0	1	315	0.00	29.889 
02:55	69.1	69.1	69.1	58	53.7	0	1	315	0.00	29.889 
03:00	68.9	68.9	68.9	58	53.5	0	0	---	0.00	29.885 
03:05	68.9	68.9	68.9	58	53.5	0	1	315	0.00	29.885 
03:10	68.8	68.8	68.8	58	53.4	0	2	315	0.00	29.885 
03:15	68.8	68.8	68.8	59	53.9	0	1	315	0.00	29.883 
03:20	68.6	68.6	68.6	59	53.7	0	1	315	0.00	29.883 
03:25	68.6	68.6	68.6	59	53.7	0	1	315	0.00	29.883 
03:30	68.4	68.4	68.4	60	54.0	0	1	315	0.00	29.879 
03:35	68.4	68.4	68.4	60	54.0	0	1	315	0.00	29.879 
03:40	68.4	68.4	68.4	60	54.0	0	1	315	0.00	29.879 
03:45	68.4	68.4	68.4	60	54.0	0	2	315	0.00	29.875 
03:50	68.6	68.6	68.6	60	54.1	0	2	315	0.00	29.875 
03:55	68.6	68.6	68.6	59	53.7	0	2	315	0.00	29.875 
04:00	68.6	68.6	68.6	60	54.1	0	3	292	0.00	29.874 
04:05	68.6	68.6	68.6	60	54.1	0	1	292	0.00	29.874 
04:10	68.6	68.6	68.6	60	54.1	0	2	292	0.00	29.874 
04:15	68.6	68.6	68.6	60	54.1	0	3	292	0.00	29.871 
04:20	68.6	68.6	68.6	61	54.6	0	2	292	0.00	29.871 
04:25	68.4	68.4	68.4	61	54.4	0	2	292	0.00	29.871 
04:30	68.1	68.1	68.1	62	54.6	0	2	292	0.00	29.864 
04:35	67.9	67.9	67.9	62	54.4	0	2	292	0.00	29.864 
04:40	67.6	67.6	67.6	63	54.5	0	1	292	0.00	29.864 
04:45	67.4	67.4	67.4	63	54.4	0	1	292	0.00	29.862 
04:50	67.3	67.3	67.3	64	54.7	0	1	292	0.00	29.862 
04:55	67.3	67.3	67.3	64	54.7	0	1	292	0.00	29.862 
05:00	67.1	67.1	67.1	65	54.9	0	2	292	0.00	29.855 
05:05	67.1	67.1	67.1	65	54.9	0	1	292	0.00	29.855 
05:10	66.9	66.9	66.9	65	54.7	0	1	292	0.00	29.855 
05:15	66.9	66.9	66.9	65	54.7	0	1	292	0.00	29.858 
05:20	66.9	66.9	66.9	66	55.2	0	1	292	0.00	29.858 
05:25	66.9	66.9	66.9	66	55.2	0	1	292	0.00	29.858 
05:30	66.8	66.8	66.8	66	55.1	0	1	292	0.00	29.855 
05:35	66.8	66.8	66.8	67	55.5	0	1	292	0.00	29.855 
05:40	66.8	66.8	66.8	67	55.5	0	3	22	0.00	29.855 
05:45	66.8	66.8	66.8	67	55.5	0	2	45	0.00	29.848 
05:50	66.8	66.8	66.8	67	55.5	0	1	45	0.00	29.848 
05:55	66.8	66.8	66.8	68	55.9	0	2	45	0.00	29.848 
06:00	66.6	66.6	66.6	69	56.1	0	1	45	0.00	29.847 
06:05	66.4	66.4	66.4	69	55.9	0	0	---	0.00	29.847 
06:10	66.4	66.4	66.4	69	55.9	0	0	---	0.00	29.847 
06:15	66.4	66.4	66.4	69	55.9	0	0	---	0.00	29.862 
06:20	66.4	66.4	66.4	70	56.3	0	1	45	0.00	29.862 
06:25	66.4	66.4	66.4	70	56.3	0	0	---	0.00	29.862 
06:30	66.4	66.4	66.4	70	56.3	0	1	45	0.00	29.856 
06:35	66.4	66.4	66.4	70	56.3	0	1	45	0.00	29.856 
06:40	66.4	66.4	66.4	71	56.7	0	2	45	0.00	29.856 
06:45	66.4	66.4	66.4	71	56.7	0	0	---	0.00	29.856 
06:50	66.4	66.4	66.4	71	56.7	0	1	45	0.00	29.856 
06:55	66.3	66.3	66.3	72	57.0	0	2	45	0.00	29.856 
07:00	66.4	66.4	66.4	72	57.1	0	1	45	0.00	29.860 
07:05	66.4	66.4	66.4	72	57.1	0	1	68	0.00	29.860 
07:10	66.6	66.6	66.6	72	57.3	0	1	68	0.00	29.860 
07:15	66.8	66.8	66.8	72	57.5	0	0	---	0.00	29.860 
07:20	66.8	66.8	66.8	72	57.5	0	1	68	0.00	29.860 
07:25	66.9	66.9	66.9	72	57.6	0	2	68	0.00	29.860 
07:30	67.1	67.1	67.1	72	57.8	0	1	68	0.00	29.853 
07:35	67.4	67.4	67.4	71	57.7	2	7	315	0.00	29.853 
07:40	67.9	67.9	67.9	70	57.7	4	9	292	0.00	29.853 
07:45	67.9	67.9	67.9	74	59.3	2	6	270	0.02	29.897 
07:50	67.1	67.1	67.1	77	59.6	0	1	270	0.00	29.897 
07:55	66.3	66.3	66.3	80	59.9	0	1	270	0.04	29.897 
08:00	65.8	65.8	65.8	82	60.1	0	0	---	0.02	29.893 
08:05	65.3	65.3	65.3	84	60.3	0	0	---	0.00	29.893 
08:10	65.0	65.0	65.0	84	60.0	0	0	---	0.01	29.893 
08:15	64.8	64.8	64.8	86	60.5	0	0	---	0.00	29.882 
08:20	64.5	64.5	64.5	87	60.5	0	0	---	0.00	29.882 
08:25	64.5	64.5	64.5	88	60.9	0	0	---	0.00	29.882 
08:30	64.2	64.2	64.2	89	60.9	0	0	---	0.00	29.879 
08:35	64.2	64.2	64.2	89	60.9	0	0	---	0.00	29.879 
08:40	64.0	64.0	64.0	90	61.0	0	0	---	0.00	29.879 
08:45	64.0	64.0	64.0	91	61.3	0	1	270	0.00	29.881 
08:50	64.0	64.0	64.0	91	61.3	0	0	---	0.00	29.881 
08:55	64.2	64.2	64.2	92	61.8	0	1	270	0.00	29.881 
09:00	64.2	64.2	64.2	92	61.8	0	1	270	0.00	29.865 
09:05	64.2	64.2	64.2	92	61.8	0	1	270	0.00	29.865 
09:10	64.2	64.2	64.2	92	61.8	0	1	270	0.00	29.865 
09:15	64.2	64.2	64.2	92	61.8	0	2	270	0.01	29.853 
09:20	64.2	64.2	64.2	92	61.8	0	3	270	0.00	29.853 
09:25	64.3	64.3	64.3	92	61.9	0	1	270	0.00	29.853 
09:30	64.5	64.5	64.5	92	62.1	0	1	270	0.00	29.832 
09:35	64.7	64.7	64.7	92	62.3	0	3	270	0.00	29.832 
09:40	64.8	64.8	64.8	92	62.4	1	4	68	0.00	29.832 
09:45	65.0	65.0	65.0	92	62.6	0	2	135	0.00	29.812 
09:50	65.0	65.0	65.0	92	62.6	0	1	112	0.00	29.812 
09:55	65.0	65.0	65.0	92	62.6	0	1	112	0.00	29.812 
10:00	65.0	65.0	65.0	92	62.6	0	0	---	0.00	29.837 
10:05	65.0	65.0	65.0	92	62.6	0	2	112	0.00	29.837 
10:10	65.2	65.2	65.2	92	62.8	0	2	112	0.00	29.837 
10:15	65.3	65.3	65.3	92	62.9	0	2	112	0.00	29.854 
10:20	65.5	65.5	65.5	92	63.1	0	1	112	0.00	29.854 
10:25	65.5	65.5	65.5	92	63.1	0	1	112	0.00	29.854 
10:30	65.6	65.6	65.6	92	63.2	0	1	112	0.00	29.886 
10:35	65.6	65.6	65.6	92	63.2	0	1	112	0.00	29.886 
10:40	66.0	66.0	66.0	92	63.6	0	3	112	0.00	29.886 
10:45	66.3	66.3	66.3	92	63.9	1	3	112	0.00	29.889 
10:50	66.4	66.4	66.4	92	64.0	0	2	112	0.00	29.889 
10:55	66.8	66.8	66.8	92	64.4	0	2	112	0.00	29.889 
11:00	66.9	66.9	66.9	91	64.2	0	3	112	0.00	29.879 
11:05	67.3	67.3	67.3	91	64.6	0	2	112	0.00	29.879 
11:10	67.6	67.6	67.6	90	64.6	1	2	112	0.00	29.879 
11:15	67.9	67.9	67.9	89	64.5	0	2	112	0.00	29.871 
11:20	68.3	68.3	68.3	89	64.9	0	3	292	0.00	29.871 
11:25	68.9	68.9	68.9	88	65.2	0	2	292	0.00	29.871 
11:30	69.4	69.4	69.4	87	65.4	0	2	292	0.00	29.874 
11:35	70.1	70.1	70.1	86	65.7	0	2	292	0.00	29.874 
11:40	70.9	70.9	70.9	84	65.8	1	3	292	0.00	29.874 
11:45	70.9	70.9	70.9	81	64.8	1	3	292	0.00	29.867 
11:50	71.1	71.1	71.1	81	65.0	1	3	292	0.00	29.867 
11:55	71.3	71.3	71.3	80	64.8	0	3	292	0.00	29.867 
12:00	71.6	71.6	71.6	78	64.4	1	3	292	0.00	29.861 
12:05	71.8	71.8	71.8	77	64.2	1	2	292	0.00	29.861 
12:10	72.1	72.1	72.1	77	64.5	0	3	292	0.00	29.861 
12:15	72.8	72.8	72.8	77	65.2	0	1	292	0.00	29.863 
12:20	73.2	73.2	73.2	76	65.2	0	1	292	0.00	29.863 
12:25	73.3	73.3	73.3	75	64.9	0	1	292	0.00	29.863 
12:30	73.3	73.3	73.3	73	64.1	0	2	292	0.00	29.858 
12:35	73.3	73.3	73.3	74	64.5	0	1	292	0.00	29.858 
12:40	73.9	73.9	73.9	74	65.1	0	1	292	0.00	29.858 
12:45	74.6	74.6	74.6	70	64.2	1	3	292	0.00	29.855 
12:50	74.9	74.9	74.9	70	64.4	1	2	292	0.00	29.855 
12:55	74.9	74.9	74.9	70	64.4	0	2	292	0.00	29.855 
13:00	75.1	75.1	76.7	71	65.0	0	2	292	0.00	29.854 
13:05	75.4	75.4	77.1	70	64.9	0	1	292	0.00	29.854 
13:10	76.1	76.1	77.8	69	65.2	0	2	292	0.00	29.854 
13:15	76.7	76.7	78.5	67	64.9	1	3	292	0.00	29.850 
13:20	76.7	76.7	78.5	68	65.3	2	4	292	0.00	29.850 
13:25	76.5	76.5	78.3	68	65.1	1	4	292	0.00	29.850 
13:30	76.7	76.7	78.4	69	65.7	0	1	292	0.00	29.850 
13:35	77.0	77.0	78.8	67	65.2	0	2	292	0.00	29.850 
13:40	77.9	77.9	79.8	67	66.0	0	1	292	0.00	29.850 
13:45	78.5	78.5	80.7	69	67.5	0	1	292	0.00	29.846 
13:50	78.8	78.8	80.9	66	66.5	0	2	292	0.00	29.846 
13:55	78.8	78.8	80.8	65	66.0	0	2	292	0.00	29.846 
14:00	78.8	78.8	80.9	66	66.5	0	1	292	0.00	29.839 
14:05	79.0	79.0	81.2	67	67.1	0	2	292	0.00	29.839 
14:10	79.4	79.4	81.6	66	67.0	1	4	68	0.00	29.839 
14:15	79.6	79.6	81.9	66	67.2	0	2	45	0.00	29.834 
14:20	79.8	79.8	82.1	65	67.0	0	2	45	0.00	29.834 
14:25	79.8	79.8	82.1	65	67.0	0	3	45	0.00	29.834 
14:30	79.8	79.8	82.1	65	67.0	0	2	45	0.00	29.827 
14:35	79.8	79.8	82.2	66	67.4	0	2	45	0.00	29.827 
14:40	79.8	79.8	82.2	66	67.4	0	1	45	0.00	29.827 
14:45	79.9	79.9	82.1	64	66.6	1	3	45	0.00	29.822 
14:50	79.9	79.9	82.1	64	66.6	1	3	45	0.00	29.822 
14:55	79.8	79.8	82.1	65	67.0	0	4	90	0.00	29.822 
15:00	79.6	79.6	81.9	66	67.2	0	3	90	0.00	29.819 
15:05	79.6	79.6	81.8	65	66.8	0	2	90	0.00	29.819 
15:10	79.6	79.6	81.8	65	66.8	0	1	90	0.00	29.819 
15:15	79.8	79.8	82.1	65	67.0	0	2	90	0.00	29.820 
15:20	79.8	79.8	82.1	65	67.0	0	1	90	0.00	29.820 
15:25	79.8	79.8	82.1	65	67.0	0	2	90	0.00	29.820 
15:30	79.9	79.9	82.1	64	66.6	0	3	90	0.00	29.815 
15:35	80.1	80.1	82.5	65	67.2	0	4	90	0.00	29.815 
15:40	80.3	80.3	82.9	66	67.9	0	1	90	0.00	29.815 
15:45	80.3	80.3	82.8	65	67.4	0	1	90	0.00	29.819 
15:50	80.1	80.1	82.5	65	67.2	0	2	90	0.00	29.819 
15:55	79.9	79.9	82.2	65	67.1	0	3	90	0.00	29.819 
16:00	79.9	79.9	82.3	66	67.5	0	2	90	0.00	29.816 
16:05	80.1	80.1	82.6	66	67.7	0	2	90	0.00	29.816 
16:10	79.9	79.9	82.2	65	67.1	0	2	90	0.00	29.816 
16:15	79.6	79.6	81.9	66	67.2	0	2	90	0.00	29.821 
16:20	79.2	79.2	81.5	67	67.3	0	1	90	0.00	29.821 
16:25	78.8	78.8	80.9	67	66.9	0	1	90	0.00	29.821 
16:30	78.6	78.6	80.7	67	66.7	0	1	90	0.00	29.817 
16:35	78.5	78.5	80.5	67	66.6	0	2	90	0.00	29.817 
16:40	78.6	78.6	80.7	67	66.7	0	3	90	0.00	29.817 
16:45	78.6	78.6	80.7	67	66.7	0	1	90	0.00	29.813 
16:50	79.0	79.0	81.2	67	67.1	0	1	90	0.00	29.813 
16:55	79.0	79.0	81.1	66	66.6	0	1	90	0.00	29.813 
17:00	78.8	78.8	80.9	66	66.5	0	2	90	0.00	29.813 
17:05	78.5	78.5	80.5	66	66.2	0	3	90	0.00	29.813 
17:10	78.3	78.3	80.3	67	66.4	0	1	270	0.00	29.813 
17:15	78.3	78.3	80.3	67	66.4	0	1	270	0.00	29.809 
17:20	78.3	78.3	80.3	68	66.8	0	2	270	0.00	29.809 
17:25	78.3	78.3	80.3	68	66.8	0	1	270	0.00	29.809 
17:30	78.3	78.3	80.3	67	66.4	0	1	270	0.00	29.805 
17:35	78.5	78.5	80.5	67	66.6	0	1	270	0.00	29.805 
17:40	78.5	78.5	80.6	68	67.0	0	1	270	0.00	29.805 
17:45	78.6	78.6	80.7	68	67.1	0	1	270	0.00	29.792 
17:50	78.6	78.6	80.7	67	66.7	0	1	270	0.00	29.792 
17:55	79.0	79.0	81.2	67	67.1	0	1	270	0.00	29.792 
18:00	79.2	79.2	81.4	66	66.8	0	1	270	0.00	29.791 
18:05	79.2	79.2	81.5	67	67.3	0	0	---	0.00	29.791 
18:10	79.0	79.0	81.1	66	66.6	0	3	90	0.00	29.791 
18:15	78.8	78.8	80.9	66	66.5	0	2	90	0.00	29.787 
18:20	78.5	78.5	80.5	66	66.2	0	1	90	0.00	29.787 
18:25	78.1	78.1	80.0	67	66.2	0	1	22	0.00	29.787 
18:30	77.9	77.9	79.8	68	66.5	0	2	22	0.00	29.793 
18:35	77.9	77.9	79.8	68	66.5	0	0	---	0.00	29.793 
18:40	77.7	77.7	79.6	68	66.3	0	1	22	0.00	29.793 
18:45	77.6	77.6	79.5	68	66.2	0	0	---	0.00	29.805 
18:50	77.4	77.4	79.2	69	66.4	0	0	---	0.00	29.805 
18:55	77.4	77.4	79.2	69	66.4	0	1	22	0.00	29.805 
19:00	77.2	77.2	79.0	69	66.2	0	0	---	0.00	29.816 
19:05	77.2	77.2	79.0	69	66.2	0	1	22	0.00	29.816 
19:10	77.0	77.0	78.8	70	66.4	0	0	---	0.00	29.816 
19:15	77.0	77.0	78.8	71	66.9	0	0	---	0.00	29.814 
19:20	76.7	76.7	78.3	73	67.4	0	0	---	0.00	29.814 
19:25	76.5	76.5	78.1	74	67.6	0	0	---	0.00	29.814 
19:30	76.1	76.1	77.5	74	67.2	0	0	---	0.00	29.809 
19:35	76.0	76.0	77.3	76	67.9	0	0	---	0.00	29.809 
19:40	75.8	75.8	77.0	77	68.1	0	0	---	0.00	29.809 
19:45	75.4	75.4	76.4	77	67.7	0	0	---	0.00	29.804 
19:50	75.3	75.3	76.2	78	68.0	0	0	---	0.00	29.804 
19:55	75.3	75.3	76.1	79	68.3	0	0	---	0.00	29.804 
20:00	75.1	75.1	75.8	79	68.1	0	0	---	0.00	29.813 
20:05	74.9	74.9	74.9	80	68.3	0	0	---	0.00	29.813 
20:10	74.7	74.7	74.7	80	68.1	0	0	---	0.00	29.813 
20:15	74.6	74.6	74.6	81	68.4	0	0	---	0.00	29.798 
20:20	74.6	74.6	74.6	81	68.4	0	0	---	0.00	29.798 
20:25	74.4	74.4	74.4	81	68.2	0	1	22	0.00	29.798 
20:30	74.2	74.2	74.2	80	67.6	0	1	22	0.00	29.798 
20:35	74.0	74.0	74.0	80	67.4	0	0	---	0.00	29.798 
20:40	74.0	74.0	74.0	81	67.8	0	0	---	0.00	29.798 
20:45	74.0	74.0	74.0	81	67.8	0	0	---	0.00	29.807 
20:50	74.0	74.0	74.0	81	67.8	0	0	---	0.00	29.807 
20:55	73.9	73.9	73.9	81	67.7	0	0	---	0.00	29.807 
21:00	73.9	73.9	73.9	81	67.7	0	0	---	0.00	29.796 
21:05	73.7	73.7	73.7	82	67.9	0	0	---	0.00	29.796 
21:10	73.7	73.7	73.7	82	67.9	0	0	---	0.00	29.796 
21:15	73.5	73.5	73.5	82	67.7	0	0	---	0.00	29.798 
21:20	73.5	73.5	73.5	82	67.7	0	0	---	0.00	29.798 
21:25	73.5	73.5	73.5	82	67.7	0	0	---	0.00	29.798 
21:30	73.5	73.5	73.5	83	68.0	0	0	---	0.00	29.797 
21:35	73.3	73.3	73.3	83	67.8	0	0	---	0.00	29.797 
21:40	73.3	73.3	73.3	83	67.8	0	0	---	0.00	29.797 
21:45	73.3	73.3	73.3	83	67.8	0	0	---	0.00	29.798 
21:50	73.2	73.2	73.2	83	67.7	0	0	---	0.00	29.798 
21:55	73.2	73.2	73.2	83	67.7	0	0	---	0.00	29.798 
22:00	73.2	73.2	73.2	83	67.7	0	0	---	0.00	29.799 
22:05	73.2	73.2	73.2	83	67.7	0	0	---	0.00	29.799 
22:10	73.5	73.5	73.5	82	67.7	1	5	22	0.00	29.799 
22:15	73.9	73.9	73.9	81	67.7	0	2	292	0.00	29.807 
22:20	74.0	74.0	74.0	80	67.4	0	1	292	0.00	29.807 
22:25	74.0	74.0	74.0	80	67.4	1	4	292	0.00	29.807 
22:30	74.0	74.0	74.0	81	67.8	2	5	292	0.00	29.807 
22:35	73.7	73.7	73.7	81	67.5	0	2	292	0.00	29.807 
22:40	73.3	73.3	73.3	82	67.5	0	0	---	0.00	29.807 
22:45	73.0	73.0	73.0	83	67.5	0	0	---	0.00	29.792 
22:50	72.8	72.8	72.8	84	67.7	0	0	---	0.00	29.792 
22:55	72.7	72.7	72.7	84	67.6	0	0	---	0.00	29.792 
23:00	72.3	72.3	72.3	84	67.2	0	0	---	0.00	29.796 
23:05	72.1	72.1	72.1	85	67.3	0	0	---	0.00	29.796 
23:10	72.0	72.0	72.0	85	67.2	0	0	---	0.00	29.796 
23:15	72.0	72.0	72.0	85	67.2	0	0	---	0.00	29.793 
23:20	71.8	71.8	71.8	86	67.4	0	0	---	0.00	29.793 
23:25	71.6	71.6	71.6	86	67.2	0	0	---	0.00	29.793 
23:30	71.6	71.6	71.6	87	67.5	0	0	---	0.00	29.793 
23:35	71.5	71.5	71.5	87	67.4	0	0	---	0.00	29.793 
23:40	71.5	71.5	71.5	87	67.4	0	0	---	0.00	29.793 
23:45	71.3	71.3	71.3	88	67.6	0	0	---	0.00	29.797 
23:50	71.3	71.3	71.3	88	67.6	0	0	---	0.00	29.797 
23:55	71.3	71.3	71.3	88	67.6	0	0	---	0.00	29.797 

CoCoRaHS
IN-AL-39
A2 Web Hosting
Creative Commons License
GoDaddy
search engine by freefind advanced

loaded 2018-11-13 17:46:37 • last modified 2010-11-18 10:43:29
Privacy PolicyDisclaimer
• wx.awcolley.com is powered by PmWiki v.2002016 •
• all content (unless otherwise noted) © 2018 A W Colley